sensor_id;sensor_type;location;lat;lon;timestamp;P1;durP1;ratioP1;P2;durP2;ratioP2
60610;SDS011;46439;51.164;13.572;2024-03-17T00:00:50;6.60;;;2.50;;
60610;SDS011;46439;51.164;13.572;2024-03-17T00:03:17;6.30;;;2.50;;
60610;SDS011;46439;51.164;13.572;2024-03-17T00:05:45;4.70;;;2.10;;
60610;SDS011;46439;51.164;13.572;2024-03-17T00:08:14;5.50;;;2.50;;
60610;SDS011;46439;51.164;13.572;2024-03-17T00:10:42;6.30;;;2.50;;
60610;SDS011;46439;51.164;13.572;2024-03-17T00:13:10;4.50;;;2.60;;
60610;SDS011;46439;51.164;13.572;2024-03-17T00:15:38;5.10;;;2.40;;
60610;SDS011;46439;51.164;13.572;2024-03-17T00:18:06;4.50;;;2.30;;
60610;SDS011;46439;51.164;13.572;2024-03-17T00:20:36;7.80;;;2.50;;
60610;SDS011;46439;51.164;13.572;2024-03-17T00:23:05;6.70;;;2.60;;
60610;SDS011;46439;51.164;13.572;2024-03-17T00:25:34;5.30;;;2.60;;
60610;SDS011;46439;51.164;13.572;2024-03-17T00:28:03;10.20;;;3.00;;
60610;SDS011;46439;51.164;13.572;2024-03-17T00:30:32;7.30;;;3.20;;
60610;SDS011;46439;51.164;13.572;2024-03-17T00:33:14;7.40;;;3.10;;
60610;SDS011;46439;51.164;13.572;2024-03-17T00:35:42;8.00;;;3.00;;
60610;SDS011;46439;51.164;13.572;2024-03-17T00:38:10;8.90;;;3.40;;
60610;SDS011;46439;51.164;13.572;2024-03-17T00:40:39;7.50;;;3.10;;
60610;SDS011;46439;51.164;13.572;2024-03-17T00:43:08;7.20;;;2.80;;
60610;SDS011;46439;51.164;13.572;2024-03-17T00:45:38;4.90;;;2.90;;
60610;SDS011;46439;51.164;13.572;2024-03-17T00:48:06;7.50;;;2.90;;
60610;SDS011;46439;51.164;13.572;2024-03-17T00:50:35;6.30;;;2.80;;
60610;SDS011;46439;51.164;13.572;2024-03-17T00:53:04;7.30;;;2.80;;
60610;SDS011;46439;51.164;13.572;2024-03-17T00:55:32;5.50;;;2.50;;
60610;SDS011;46439;51.164;13.572;2024-03-17T00:58:00;8.10;;;3.20;;
60610;SDS011;46439;51.164;13.572;2024-03-17T01:00:29;6.40;;;2.60;;
60610;SDS011;46439;51.164;13.572;2024-03-17T01:02:59;5.70;;;2.40;;
60610;SDS011;46439;51.164;13.572;2024-03-17T01:05:27;6.10;;;2.50;;
60610;SDS011;46439;51.164;13.572;2024-03-17T01:08:06;6.80;;;2.50;;
60610;SDS011;46439;51.164;13.572;2024-03-17T01:10:36;9.80;;;2.60;;
60610;SDS011;46439;51.164;13.572;2024-03-17T01:13:06;4.60;;;2.40;;
60610;SDS011;46439;51.164;13.572;2024-03-17T01:15:35;6.10;;;2.40;;
60610;SDS011;46439;51.164;13.572;2024-03-17T01:18:05;5.40;;;2.60;;
60610;SDS011;46439;51.164;13.572;2024-03-17T01:20:35;5.20;;;2.80;;
60610;SDS011;46439;51.164;13.572;2024-03-17T01:23:04;3.60;;;2.40;;
60610;SDS011;46439;51.164;13.572;2024-03-17T01:25:34;6.00;;;2.90;;
60610;SDS011;46439;51.164;13.572;2024-03-17T01:28:05;8.20;;;2.90;;
60610;SDS011;46439;51.164;13.572;2024-03-17T01:30:33;5.70;;;2.80;;
60610;SDS011;46439;51.164;13.572;2024-03-17T01:33:01;8.60;;;3.00;;
60610;SDS011;46439;51.164;13.572;2024-03-17T01:35:31;6.40;;;2.90;;
60610;SDS011;46439;51.164;13.572;2024-03-17T01:38:00;7.00;;;2.70;;
60610;SDS011;46439;51.164;13.572;2024-03-17T01:40:28;4.20;;;2.30;;
60610;SDS011;46439;51.164;13.572;2024-03-17T01:42:56;9.60;;;3.20;;
60610;SDS011;46439;51.164;13.572;2024-03-17T01:45:28;4.50;;;2.60;;
60610;SDS011;46439;51.164;13.572;2024-03-17T01:47:58;5.80;;;2.80;;
60610;SDS011;46439;51.164;13.572;2024-03-17T01:50:28;7.20;;;2.70;;
60610;SDS011;46439;51.164;13.572;2024-03-17T01:53:01;4.30;;;2.30;;
60610;SDS011;46439;51.164;13.572;2024-03-17T01:55:31;5.10;;;2.90;;
60610;SDS011;46439;51.164;13.572;2024-03-17T01:58:00;4.50;;;2.40;;
60610;SDS011;46439;51.164;13.572;2024-03-17T02:00:30;6.00;;;2.50;;
60610;SDS011;46439;51.164;13.572;2024-03-17T02:03:00;6.90;;;2.40;;
60610;SDS011;46439;51.164;13.572;2024-03-17T02:05:28;6.90;;;2.80;;
60610;SDS011;46439;51.164;13.572;2024-03-17T02:07:56;5.10;;;2.50;;
60610;SDS011;46439;51.164;13.572;2024-03-17T02:10:24;5.30;;;2.50;;
60610;SDS011;46439;51.164;13.572;2024-03-17T02:12:52;6.30;;;2.60;;
60610;SDS011;46439;51.164;13.572;2024-03-17T02:15:21;6.70;;;2.90;;
60610;SDS011;46439;51.164;13.572;2024-03-17T02:17:48;8.60;;;3.00;;
60610;SDS011;46439;51.164;13.572;2024-03-17T02:20:16;7.40;;;2.80;;
60610;SDS011;46439;51.164;13.572;2024-03-17T02:22:45;4.80;;;2.40;;
60610;SDS011;46439;51.164;13.572;2024-03-17T02:25:12;4.80;;;2.30;;
60610;SDS011;46439;51.164;13.572;2024-03-17T02:27:40;6.20;;;2.50;;
60610;SDS011;46439;51.164;13.572;2024-03-17T02:30:09;9.90;;;2.90;;
60610;SDS011;46439;51.164;13.572;2024-03-17T02:32:37;5.80;;;2.70;;
60610;SDS011;46439;51.164;13.572;2024-03-17T02:35:06;7.10;;;2.70;;
60610;SDS011;46439;51.164;13.572;2024-03-17T02:37:37;5.80;;;2.80;;
60610;SDS011;46439;51.164;13.572;2024-03-17T02:40:06;5.40;;;2.70;;
60610;SDS011;46439;51.164;13.572;2024-03-17T02:42:36;4.00;;;2.40;;
60610;SDS011;46439;51.164;13.572;2024-03-17T02:45:06;5.70;;;2.90;;
60610;SDS011;46439;51.164;13.572;2024-03-17T02:47:34;5.50;;;2.90;;
60610;SDS011;46439;51.164;13.572;2024-03-17T02:50:03;4.80;;;2.60;;
60610;SDS011;46439;51.164;13.572;2024-03-17T02:52:31;7.60;;;3.00;;
60610;SDS011;46439;51.164;13.572;2024-03-17T02:55:00;6.80;;;3.00;;
60610;SDS011;46439;51.164;13.572;2024-03-17T02:57:28;4.70;;;2.80;;
60610;SDS011;46439;51.164;13.572;2024-03-17T02:59:57;8.90;;;2.80;;
60610;SDS011;46439;51.164;13.572;2024-03-17T03:02:25;4.40;;;2.60;;
60610;SDS011;46439;51.164;13.572;2024-03-17T03:04:53;7.20;;;3.00;;
60610;SDS011;46439;51.164;13.572;2024-03-17T03:07:21;5.60;;;2.60;;
60610;SDS011;46439;51.164;13.572;2024-03-17T03:09:49;5.10;;;2.50;;
60610;SDS011;46439;51.164;13.572;2024-03-17T03:12:18;3.90;;;2.60;;
60610;SDS011;46439;51.164;13.572;2024-03-17T03:14:46;3.70;;;2.30;;
60610;SDS011;46439;51.164;13.572;2024-03-17T03:17:14;6.90;;;2.90;;
60610;SDS011;46439;51.164;13.572;2024-03-17T03:19:42;4.50;;;2.80;;
60610;SDS011;46439;51.164;13.572;2024-03-17T03:22:10;6.90;;;3.10;;
60610;SDS011;46439;51.164;13.572;2024-03-17T03:24:38;7.90;;;2.80;;
60610;SDS011;46439;51.164;13.572;2024-03-17T03:27:06;4.00;;;2.80;;
60610;SDS011;46439;51.164;13.572;2024-03-17T03:29:35;6.00;;;2.80;;
60610;SDS011;46439;51.164;13.572;2024-03-17T03:32:04;5.30;;;2.70;;
60610;SDS011;46439;51.164;13.572;2024-03-17T03:34:34;9.40;;;3.10;;
60610;SDS011;46439;51.164;13.572;2024-03-17T03:37:02;5.40;;;3.20;;
60610;SDS011;46439;51.164;13.572;2024-03-17T03:39:29;6.30;;;3.00;;
60610;SDS011;46439;51.164;13.572;2024-03-17T03:41:58;5.70;;;2.70;;
60610;SDS011;46439;51.164;13.572;2024-03-17T03:44:26;6.30;;;2.70;;
60610;SDS011;46439;51.164;13.572;2024-03-17T03:46:55;7.00;;;3.00;;
60610;SDS011;46439;51.164;13.572;2024-03-17T03:49:24;5.70;;;2.80;;
60610;SDS011;46439;51.164;13.572;2024-03-17T03:51:53;7.30;;;3.20;;
60610;SDS011;46439;51.164;13.572;2024-03-17T03:54:20;6.80;;;3.20;;
60610;SDS011;46439;51.164;13.572;2024-03-17T03:56:48;5.50;;;3.10;;
60610;SDS011;46439;51.164;13.572;2024-03-17T03:59:16;7.30;;;3.00;;
60610;SDS011;46439;51.164;13.572;2024-03-17T04:01:44;8.80;;;3.60;;
60610;SDS011;46439;51.164;13.572;2024-03-17T04:04:14;6.20;;;3.40;;
60610;SDS011;46439;51.164;13.572;2024-03-17T04:06:42;7.50;;;3.50;;
60610;SDS011;46439;51.164;13.572;2024-03-17T04:09:10;7.00;;;3.30;;
60610;SDS011;46439;51.164;13.572;2024-03-17T04:11:38;5.70;;;3.00;;
60610;SDS011;46439;51.164;13.572;2024-03-17T04:14:06;5.70;;;2.80;;
60610;SDS011;46439;51.164;13.572;2024-03-17T04:16:34;4.40;;;2.90;;
60610;SDS011;46439;51.164;13.572;2024-03-17T04:19:02;5.10;;;2.90;;
60610;SDS011;46439;51.164;13.572;2024-03-17T04:21:30;9.00;;;2.80;;
60610;SDS011;46439;51.164;13.572;2024-03-17T04:23:58;8.90;;;3.00;;
60610;SDS011;46439;51.164;13.572;2024-03-17T04:26:26;5.70;;;2.90;;
60610;SDS011;46439;51.164;13.572;2024-03-17T04:28:54;6.90;;;3.10;;
60610;SDS011;46439;51.164;13.572;2024-03-17T04:31:23;8.50;;;3.40;;
60610;SDS011;46439;51.164;13.572;2024-03-17T04:33:51;8.10;;;2.90;;
60610;SDS011;46439;51.164;13.572;2024-03-17T04:36:19;7.20;;;3.00;;
60610;SDS011;46439;51.164;13.572;2024-03-17T04:38:46;6.40;;;3.20;;
60610;SDS011;46439;51.164;13.572;2024-03-17T04:41:16;8.70;;;2.90;;
60610;SDS011;46439;51.164;13.572;2024-03-17T04:43:45;5.70;;;3.20;;
60610;SDS011;46439;51.164;13.572;2024-03-17T04:46:13;7.00;;;3.10;;
60610;SDS011;46439;51.164;13.572;2024-03-17T04:48:42;6.90;;;3.50;;
60610;SDS011;46439;51.164;13.572;2024-03-17T04:51:11;6.90;;;3.00;;
60610;SDS011;46439;51.164;13.572;2024-03-17T04:53:42;6.40;;;3.00;;
60610;SDS011;46439;51.164;13.572;2024-03-17T04:56:10;6.70;;;2.90;;
60610;SDS011;46439;51.164;13.572;2024-03-17T04:58:38;6.10;;;2.80;;
60610;SDS011;46439;51.164;13.572;2024-03-17T05:01:06;9.00;;;3.00;;
60610;SDS011;46439;51.164;13.572;2024-03-17T05:03:35;8.10;;;3.10;;
60610;SDS011;46439;51.164;13.572;2024-03-17T05:06:03;6.30;;;3.00;;
60610;SDS011;46439;51.164;13.572;2024-03-17T05:08:32;7.50;;;2.70;;
60610;SDS011;46439;51.164;13.572;2024-03-17T05:11:04;4.90;;;3.00;;
60610;SDS011;46439;51.164;13.572;2024-03-17T05:13:32;4.00;;;2.70;;
60610;SDS011;46439;51.164;13.572;2024-03-17T05:16:01;6.20;;;3.20;;
60610;SDS011;46439;51.164;13.572;2024-03-17T05:18:30;7.00;;;3.00;;
60610;SDS011;46439;51.164;13.572;2024-03-17T05:21:02;4.60;;;2.70;;
60610;SDS011;46439;51.164;13.572;2024-03-17T05:23:32;6.70;;;3.00;;
60610;SDS011;46439;51.164;13.572;2024-03-17T05:26:01;6.80;;;3.00;;
60610;SDS011;46439;51.164;13.572;2024-03-17T05:28:32;5.10;;;3.10;;
60610;SDS011;46439;51.164;13.572;2024-03-17T05:31:00;6.40;;;3.30;;
60610;SDS011;46439;51.164;13.572;2024-03-17T05:33:28;5.40;;;3.20;;
60610;SDS011;46439;51.164;13.572;2024-03-17T05:35:56;5.50;;;3.00;;
60610;SDS011;46439;51.164;13.572;2024-03-17T05:38:25;6.00;;;3.40;;
60610;SDS011;46439;51.164;13.572;2024-03-17T05:40:55;8.00;;;3.10;;
60610;SDS011;46439;51.164;13.572;2024-03-17T05:43:26;7.10;;;3.30;;
60610;SDS011;46439;51.164;13.572;2024-03-17T05:45:56;7.40;;;3.40;;
60610;SDS011;46439;51.164;13.572;2024-03-17T05:48:25;9.70;;;3.30;;
60610;SDS011;46439;51.164;13.572;2024-03-17T05:50:54;5.70;;;3.40;;
60610;SDS011;46439;51.164;13.572;2024-03-17T05:53:22;4.60;;;3.20;;
60610;SDS011;46439;51.164;13.572;2024-03-17T05:55:50;7.00;;;3.20;;
60610;SDS011;46439;51.164;13.572;2024-03-17T05:58:18;5.80;;;3.20;;
60610;SDS011;46439;51.164;13.572;2024-03-17T06:00:46;10.70;;;3.80;;
60610;SDS011;46439;51.164;13.572;2024-03-17T06:03:14;7.70;;;3.00;;
60610;SDS011;46439;51.164;13.572;2024-03-17T06:05:43;5.40;;;3.20;;
60610;SDS011;46439;51.164;13.572;2024-03-17T06:08:12;4.50;;;2.90;;
60610;SDS011;46439;51.164;13.572;2024-03-17T06:10:43;6.80;;;3.40;;
60610;SDS011;46439;51.164;13.572;2024-03-17T06:13:13;5.60;;;3.40;;
60610;SDS011;46439;51.164;13.572;2024-03-17T06:15:43;8.70;;;3.90;;
60610;SDS011;46439;51.164;13.572;2024-03-17T06:18:13;10.30;;;5.10;;
60610;SDS011;46439;51.164;13.572;2024-03-17T06:20:44;12.20;;;5.40;;
60610;SDS011;46439;51.164;13.572;2024-03-17T06:23:13;10.00;;;4.20;;
60610;SDS011;46439;51.164;13.572;2024-03-17T06:25:42;8.40;;;3.70;;
60610;SDS011;46439;51.164;13.572;2024-03-17T06:28:13;6.80;;;3.40;;
60610;SDS011;46439;51.164;13.572;2024-03-17T06:30:43;6.10;;;3.90;;
60610;SDS011;46439;51.164;13.572;2024-03-17T06:33:15;9.60;;;4.30;;
60610;SDS011;46439;51.164;13.572;2024-03-17T06:35:47;9.30;;;4.00;;
60610;SDS011;46439;51.164;13.572;2024-03-17T06:38:15;10.80;;;3.60;;
60610;SDS011;46439;51.164;13.572;2024-03-17T06:40:47;8.30;;;4.00;;
60610;SDS011;46439;51.164;13.572;2024-03-17T06:43:16;7.10;;;3.30;;
60610;SDS011;46439;51.164;13.572;2024-03-17T06:45:45;6.90;;;3.00;;
60610;SDS011;46439;51.164;13.572;2024-03-17T06:48:22;7.20;;;3.00;;
60610;SDS011;46439;51.164;13.572;2024-03-17T06:50:50;9.60;;;3.00;;
60610;SDS011;46439;51.164;13.572;2024-03-17T06:53:20;7.40;;;3.20;;
60610;SDS011;46439;51.164;13.572;2024-03-17T06:55:55;9.30;;;3.40;;
60610;SDS011;46439;51.164;13.572;2024-03-17T06:58:23;8.20;;;3.20;;
60610;SDS011;46439;51.164;13.572;2024-03-17T07:00:56;16.40;;;5.40;;
60610;SDS011;46439;51.164;13.572;2024-03-17T07:03:28;9.40;;;3.20;;
60610;SDS011;46439;51.164;13.572;2024-03-17T07:05:58;10.50;;;3.00;;
60610;SDS011;46439;51.164;13.572;2024-03-17T07:08:28;8.50;;;3.10;;
60610;SDS011;46439;51.164;13.572;2024-03-17T07:10:57;8.00;;;2.90;;
60610;SDS011;46439;51.164;13.572;2024-03-17T07:15:56;11.60;;;3.30;;
60610;SDS011;46439;51.164;13.572;2024-03-17T07:18:25;9.80;;;3.30;;
60610;SDS011;46439;51.164;13.572;2024-03-17T07:20:55;13.40;;;3.60;;
60610;SDS011;46439;51.164;13.572;2024-03-17T07:23:25;6.90;;;3.50;;
60610;SDS011;46439;51.164;13.572;2024-03-17T07:25:53;12.60;;;3.20;;
60610;SDS011;46439;51.164;13.572;2024-03-17T07:28:22;8.90;;;3.00;;
60610;SDS011;46439;51.164;13.572;2024-03-17T07:30:51;12.80;;;3.10;;
60610;SDS011;46439;51.164;13.572;2024-03-17T07:33:20;8.00;;;2.80;;
60610;SDS011;46439;51.164;13.572;2024-03-17T07:35:49;9.90;;;2.70;;
60610;SDS011;46439;51.164;13.572;2024-03-17T07:38:18;8.90;;;2.70;;
60610;SDS011;46439;51.164;13.572;2024-03-17T07:40:56;8.40;;;2.60;;
60610;SDS011;46439;51.164;13.572;2024-03-17T07:43:25;12.70;;;2.80;;
60610;SDS011;46439;51.164;13.572;2024-03-17T07:46:03;10.70;;;3.00;;
60610;SDS011;46439;51.164;13.572;2024-03-17T07:48:33;13.10;;;3.00;;
60610;SDS011;46439;51.164;13.572;2024-03-17T07:51:03;8.40;;;2.60;;
60610;SDS011;46439;51.164;13.572;2024-03-17T07:53:35;12.30;;;2.70;;
60610;SDS011;46439;51.164;13.572;2024-03-17T07:56:05;11.80;;;3.10;;
60610;SDS011;46439;51.164;13.572;2024-03-17T07:58:35;11.50;;;2.80;;
60610;SDS011;46439;51.164;13.572;2024-03-17T08:01:05;11.50;;;3.10;;
60610;SDS011;46439;51.164;13.572;2024-03-17T08:03:37;9.80;;;2.30;;
60610;SDS011;46439;51.164;13.572;2024-03-17T08:06:06;9.90;;;3.20;;
60610;SDS011;46439;51.164;13.572;2024-03-17T08:08:35;15.20;;;2.90;;
60610;SDS011;46439;51.164;13.572;2024-03-17T08:11:03;8.00;;;2.70;;
60610;SDS011;46439;51.164;13.572;2024-03-17T08:13:32;8.80;;;2.60;;
60610;SDS011;46439;51.164;13.572;2024-03-17T08:16:02;12.10;;;2.80;;
60610;SDS011;46439;51.164;13.572;2024-03-17T08:18:41;6.70;;;2.40;;
60610;SDS011;46439;51.164;13.572;2024-03-17T08:21:10;9.40;;;2.90;;
60610;SDS011;46439;51.164;13.572;2024-03-17T08:23:37;9.50;;;2.80;;
60610;SDS011;46439;51.164;13.572;2024-03-17T08:26:08;8.80;;;2.60;;
60610;SDS011;46439;51.164;13.572;2024-03-17T08:28:36;8.40;;;2.90;;
60610;SDS011;46439;51.164;13.572;2024-03-17T08:31:07;8.70;;;3.20;;
60610;SDS011;46439;51.164;13.572;2024-03-17T08:33:44;11.40;;;3.20;;
60610;SDS011;46439;51.164;13.572;2024-03-17T08:36:18;12.00;;;3.60;;
60610;SDS011;46439;51.164;13.572;2024-03-17T08:38:47;6.60;;;2.70;;
60610;SDS011;46439;51.164;13.572;2024-03-17T08:41:15;11.70;;;3.00;;
60610;SDS011;46439;51.164;13.572;2024-03-17T08:43:43;9.90;;;2.80;;
60610;SDS011;46439;51.164;13.572;2024-03-17T08:46:11;10.50;;;3.60;;
60610;SDS011;46439;51.164;13.572;2024-03-17T08:48:40;7.70;;;2.70;;
60610;SDS011;46439;51.164;13.572;2024-03-17T08:51:09;9.00;;;2.70;;
60610;SDS011;46439;51.164;13.572;2024-03-17T08:53:37;12.20;;;2.80;;
60610;SDS011;46439;51.164;13.572;2024-03-17T08:56:06;7.10;;;2.60;;
60610;SDS011;46439;51.164;13.572;2024-03-17T08:58:34;9.60;;;3.20;;
60610;SDS011;46439;51.164;13.572;2024-03-17T09:01:06;15.60;;;3.50;;
60610;SDS011;46439;51.164;13.572;2024-03-17T09:03:35;11.60;;;3.60;;
60610;SDS011;46439;51.164;13.572;2024-03-17T09:06:10;10.80;;;2.90;;
60610;SDS011;46439;51.164;13.572;2024-03-17T09:08:43;8.90;;;2.40;;
60610;SDS011;46439;51.164;13.572;2024-03-17T09:11:13;8.30;;;2.40;;
60610;SDS011;46439;51.164;13.572;2024-03-17T09:13:44;7.80;;;2.20;;
60610;SDS011;46439;51.164;13.572;2024-03-17T09:16:13;10.20;;;2.60;;
60610;SDS011;46439;51.164;13.572;2024-03-17T09:18:46;8.60;;;2.30;;
60610;SDS011;46439;51.164;13.572;2024-03-17T09:21:18;7.10;;;2.20;;
60610;SDS011;46439;51.164;13.572;2024-03-17T09:23:46;7.10;;;2.30;;
60610;SDS011;46439;51.164;13.572;2024-03-17T09:26:16;13.50;;;2.40;;
60610;SDS011;46439;51.164;13.572;2024-03-17T09:28:45;9.50;;;2.20;;
60610;SDS011;46439;51.164;13.572;2024-03-17T09:31:13;9.10;;;2.00;;
60610;SDS011;46439;51.164;13.572;2024-03-17T09:33:41;7.90;;;2.00;;
60610;SDS011;46439;51.164;13.572;2024-03-17T09:36:09;8.10;;;1.90;;
60610;SDS011;46439;51.164;13.572;2024-03-17T09:38:40;7.60;;;1.90;;
60610;SDS011;46439;51.164;13.572;2024-03-17T09:41:11;7.80;;;1.80;;
60610;SDS011;46439;51.164;13.572;2024-03-17T09:43:46;6.10;;;1.70;;
60610;SDS011;46439;51.164;13.572;2024-03-17T09:46:15;5.30;;;1.70;;
60610;SDS011;46439;51.164;13.572;2024-03-17T09:48:45;6.00;;;1.90;;
60610;SDS011;46439;51.164;13.572;2024-03-17T09:51:15;12.00;;;2.20;;
60610;SDS011;46439;51.164;13.572;2024-03-17T09:53:47;7.10;;;2.10;;
60610;SDS011;46439;51.164;13.572;2024-03-17T09:56:16;5.00;;;2.00;;
60610;SDS011;46439;51.164;13.572;2024-03-17T10:01:15;5.60;;;2.00;;
60610;SDS011;46439;51.164;13.572;2024-03-17T10:03:44;7.00;;;2.00;;
60610;SDS011;46439;51.164;13.572;2024-03-17T10:06:18;5.90;;;1.70;;
60610;SDS011;46439;51.164;13.572;2024-03-17T10:08:48;6.00;;;2.20;;
60610;SDS011;46439;51.164;13.572;2024-03-17T10:11:17;5.90;;;1.80;;
60610;SDS011;46439;51.164;13.572;2024-03-17T10:13:58;6.80;;;2.60;;
60610;SDS011;46439;51.164;13.572;2024-03-17T10:16:28;5.00;;;1.60;;
60610;SDS011;46439;51.164;13.572;2024-03-17T10:19:07;4.90;;;2.20;;
60610;SDS011;46439;51.164;13.572;2024-03-17T10:21:40;7.10;;;1.80;;
60610;SDS011;46439;51.164;13.572;2024-03-17T10:24:10;7.00;;;2.30;;
60610;SDS011;46439;51.164;13.572;2024-03-17T10:26:43;9.10;;;2.10;;
60610;SDS011;46439;51.164;13.572;2024-03-17T10:29:19;6.50;;;2.20;;
60610;SDS011;46439;51.164;13.572;2024-03-17T10:31:50;7.40;;;2.10;;
60610;SDS011;46439;51.164;13.572;2024-03-17T10:34:20;6.90;;;2.30;;
60610;SDS011;46439;51.164;13.572;2024-03-17T10:36:51;3.80;;;1.60;;
60610;SDS011;46439;51.164;13.572;2024-03-17T10:39:31;6.80;;;1.90;;
60610;SDS011;46439;51.164;13.572;2024-03-17T10:42:01;5.60;;;1.80;;
60610;SDS011;46439;51.164;13.572;2024-03-17T10:44:30;7.80;;;2.20;;
60610;SDS011;46439;51.164;13.572;2024-03-17T10:46:59;5.40;;;2.00;;
60610;SDS011;46439;51.164;13.572;2024-03-17T10:49:36;7.80;;;2.40;;
60610;SDS011;46439;51.164;13.572;2024-03-17T10:52:06;9.10;;;2.10;;
60610;SDS011;46439;51.164;13.572;2024-03-17T10:54:41;5.40;;;1.80;;
60610;SDS011;46439;51.164;13.572;2024-03-17T10:57:17;5.80;;;1.90;;
60610;SDS011;46439;51.164;13.572;2024-03-17T10:59:53;6.20;;;2.20;;
60610;SDS011;46439;51.164;13.572;2024-03-17T11:02:23;11.10;;;2.30;;
60610;SDS011;46439;51.164;13.572;2024-03-17T11:04:55;7.50;;;2.10;;
60610;SDS011;46439;51.164;13.572;2024-03-17T11:07:24;7.00;;;2.20;;
60610;SDS011;46439;51.164;13.572;2024-03-17T11:09:55;6.80;;;1.80;;
60610;SDS011;46439;51.164;13.572;2024-03-17T11:18:39;8.00;;;2.20;;
60610;SDS011;46439;51.164;13.572;2024-03-17T11:21:17;8.10;;;2.20;;
60610;SDS011;46439;51.164;13.572;2024-03-17T11:23:55;5.40;;;1.70;;
60610;SDS011;46439;51.164;13.572;2024-03-17T11:26:28;9.00;;;2.30;;
60610;SDS011;46439;51.164;13.572;2024-03-17T11:28:58;5.40;;;2.00;;
60610;SDS011;46439;51.164;13.572;2024-03-17T11:31:35;6.80;;;2.30;;
60610;SDS011;46439;51.164;13.572;2024-03-17T11:34:07;4.90;;;2.00;;
60610;SDS011;46439;51.164;13.572;2024-03-17T11:36:57;5.70;;;1.90;;
60610;SDS011;46439;51.164;13.572;2024-03-17T11:42:27;7.50;;;2.30;;
60610;SDS011;46439;51.164;13.572;2024-03-17T11:45:06;5.90;;;2.30;;
60610;SDS011;46439;51.164;13.572;2024-03-17T11:47:45;6.70;;;1.90;;
60610;SDS011;46439;51.164;13.572;2024-03-17T11:50:14;5.80;;;2.30;;
60610;SDS011;46439;51.164;13.572;2024-03-17T11:52:43;7.90;;;2.40;;
60610;SDS011;46439;51.164;13.572;2024-03-17T11:55:19;8.30;;;2.30;;
60610;SDS011;46439;51.164;13.572;2024-03-17T11:57:47;9.20;;;2.50;;
60610;SDS011;46439;51.164;13.572;2024-03-17T12:00:23;5.50;;;2.10;;
60610;SDS011;46439;51.164;13.572;2024-03-17T12:02:52;10.10;;;2.20;;
60610;SDS011;46439;51.164;13.572;2024-03-17T12:05:25;6.90;;;2.20;;
60610;SDS011;46439;51.164;13.572;2024-03-17T12:07:53;8.00;;;2.30;;
60610;SDS011;46439;51.164;13.572;2024-03-17T12:10:21;6.00;;;2.40;;
60610;SDS011;46439;51.164;13.572;2024-03-17T12:12:49;6.20;;;2.20;;
60610;SDS011;46439;51.164;13.572;2024-03-17T12:15:18;9.20;;;2.50;;
60610;SDS011;46439;51.164;13.572;2024-03-17T12:17:51;6.20;;;2.40;;
60610;SDS011;46439;51.164;13.572;2024-03-17T12:20:20;6.50;;;2.50;;
60610;SDS011;46439;51.164;13.572;2024-03-17T12:22:49;9.20;;;5.10;;
60610;SDS011;46439;51.164;13.572;2024-03-17T12:25:19;9.70;;;3.50;;
60610;SDS011;46439;51.164;13.572;2024-03-17T12:27:49;5.90;;;2.60;;
60610;SDS011;46439;51.164;13.572;2024-03-17T12:30:17;6.10;;;2.90;;
60610;SDS011;46439;51.164;13.572;2024-03-17T12:32:46;6.20;;;2.80;;
60610;SDS011;46439;51.164;13.572;2024-03-17T12:35:16;8.50;;;2.30;;
60610;SDS011;46439;51.164;13.572;2024-03-17T12:37:45;8.50;;;2.50;;
60610;SDS011;46439;51.164;13.572;2024-03-17T12:40:19;7.00;;;3.00;;
60610;SDS011;46439;51.164;13.572;2024-03-17T12:42:48;8.00;;;2.80;;
60610;SDS011;46439;51.164;13.572;2024-03-17T12:45:20;6.50;;;2.60;;
60610;SDS011;46439;51.164;13.572;2024-03-17T12:47:48;4.90;;;2.20;;
60610;SDS011;46439;51.164;13.572;2024-03-17T12:50:18;7.40;;;2.50;;
60610;SDS011;46439;51.164;13.572;2024-03-17T12:52:54;6.80;;;2.60;;
60610;SDS011;46439;51.164;13.572;2024-03-17T12:55:25;7.40;;;2.60;;
60610;SDS011;46439;51.164;13.572;2024-03-17T12:58:11;5.60;;;2.60;;
60610;SDS011;46439;51.164;13.572;2024-03-17T13:01:01;5.30;;;2.20;;
60610;SDS011;46439;51.164;13.572;2024-03-17T13:03:30;5.20;;;2.00;;
60610;SDS011;46439;51.164;13.572;2024-03-17T13:06:00;8.00;;;3.00;;
60610;SDS011;46439;51.164;13.572;2024-03-17T13:08:30;9.30;;;2.40;;
60610;SDS011;46439;51.164;13.572;2024-03-17T13:10:58;9.90;;;2.50;;
60610;SDS011;46439;51.164;13.572;2024-03-17T13:13:26;7.00;;;2.40;;
60610;SDS011;46439;51.164;13.572;2024-03-17T13:15:55;5.50;;;2.60;;
60610;SDS011;46439;51.164;13.572;2024-03-17T13:18:23;6.20;;;2.70;;
60610;SDS011;46439;51.164;13.572;2024-03-17T13:20:51;7.90;;;2.50;;
60610;SDS011;46439;51.164;13.572;2024-03-17T13:23:20;4.40;;;2.20;;
60610;SDS011;46439;51.164;13.572;2024-03-17T13:25:48;6.30;;;2.50;;
60610;SDS011;46439;51.164;13.572;2024-03-17T13:28:16;7.30;;;2.40;;
60610;SDS011;46439;51.164;13.572;2024-03-17T13:30:44;8.70;;;2.90;;
60610;SDS011;46439;51.164;13.572;2024-03-17T13:33:13;8.30;;;2.60;;
60610;SDS011;46439;51.164;13.572;2024-03-17T13:35:42;8.10;;;2.70;;
60610;SDS011;46439;51.164;13.572;2024-03-17T13:38:10;8.00;;;2.80;;
60610;SDS011;46439;51.164;13.572;2024-03-17T13:40:38;8.60;;;2.60;;
60610;SDS011;46439;51.164;13.572;2024-03-17T13:43:09;9.90;;;2.90;;
60610;SDS011;46439;51.164;13.572;2024-03-17T13:45:38;6.20;;;2.50;;
60610;SDS011;46439;51.164;13.572;2024-03-17T13:48:07;6.90;;;2.60;;
60610;SDS011;46439;51.164;13.572;2024-03-17T13:50:37;8.10;;;2.80;;
60610;SDS011;46439;51.164;13.572;2024-03-17T13:53:08;6.50;;;2.50;;
60610;SDS011;46439;51.164;13.572;2024-03-17T13:55:36;6.60;;;2.70;;
60610;SDS011;46439;51.164;13.572;2024-03-17T13:58:05;8.00;;;3.10;;
60610;SDS011;46439;51.164;13.572;2024-03-17T14:00:34;5.20;;;2.30;;
60610;SDS011;46439;51.164;13.572;2024-03-17T14:05:32;7.40;;;2.70;;
60610;SDS011;46439;51.164;13.572;2024-03-17T14:08:02;6.90;;;2.70;;
60610;SDS011;46439;51.164;13.572;2024-03-17T14:10:30;8.50;;;2.40;;
60610;SDS011;46439;51.164;13.572;2024-03-17T14:12:58;7.20;;;2.50;;
60610;SDS011;46439;51.164;13.572;2024-03-17T14:15:26;4.40;;;2.20;;
60610;SDS011;46439;51.164;13.572;2024-03-17T14:17:54;6.30;;;2.70;;
60610;SDS011;46439;51.164;13.572;2024-03-17T14:20:22;5.40;;;2.40;;
60610;SDS011;46439;51.164;13.572;2024-03-17T14:22:57;5.90;;;2.30;;
60610;SDS011;46439;51.164;13.572;2024-03-17T14:25:25;7.70;;;2.40;;
60610;SDS011;46439;51.164;13.572;2024-03-17T14:27:53;6.70;;;2.80;;
60610;SDS011;46439;51.164;13.572;2024-03-17T14:30:21;10.20;;;2.80;;
60610;SDS011;46439;51.164;13.572;2024-03-17T14:32:49;5.90;;;2.30;;
60610;SDS011;46439;51.164;13.572;2024-03-17T14:35:17;7.60;;;2.30;;
60610;SDS011;46439;51.164;13.572;2024-03-17T14:37:48;6.40;;;2.20;;
60610;SDS011;46439;51.164;13.572;2024-03-17T14:40:18;6.30;;;2.80;;
60610;SDS011;46439;51.164;13.572;2024-03-17T14:42:55;4.60;;;2.60;;
60610;SDS011;46439;51.164;13.572;2024-03-17T14:45:23;5.40;;;2.30;;
60610;SDS011;46439;51.164;13.572;2024-03-17T14:47:51;6.00;;;2.50;;
60610;SDS011;46439;51.164;13.572;2024-03-17T14:50:19;8.40;;;2.90;;
60610;SDS011;46439;51.164;13.572;2024-03-17T14:52:47;5.10;;;2.50;;
60610;SDS011;46439;51.164;13.572;2024-03-17T14:55:15;8.20;;;2.90;;
60610;SDS011;46439;51.164;13.572;2024-03-17T14:57:44;7.80;;;2.80;;
60610;SDS011;46439;51.164;13.572;2024-03-17T15:00:13;6.90;;;2.90;;
60610;SDS011;46439;51.164;13.572;2024-03-17T15:02:47;8.00;;;2.60;;
60610;SDS011;46439;51.164;13.572;2024-03-17T15:05:23;8.30;;;2.80;;